sensor_id;sensor_type;location;lat;lon;timestamp;P1;durP1;ratioP1;P2;durP2;ratioP2
64029;SDS011;50277;52.064;4.492;2023-03-01T00:02:00;15.43;;;10.32;;
64029;SDS011;50277;52.064;4.492;2023-03-01T00:04:26;14.40;;;11.18;;
64029;SDS011;50277;52.064;4.492;2023-03-01T00:06:52;15.35;;;11.25;;
64029;SDS011;50277;52.064;4.492;2023-03-01T00:09:18;16.65;;;11.38;;
64029;SDS011;50277;52.064;4.492;2023-03-01T00:11:43;16.90;;;11.02;;
64029;SDS011;50277;52.064;4.492;2023-03-01T00:14:09;13.45;;;11.63;;
64029;SDS011;50277;52.064;4.492;2023-03-01T00:16:39;14.77;;;10.50;;
64029;SDS011;50277;52.064;4.492;2023-03-01T00:19:05;15.98;;;11.75;;
64029;SDS011;50277;52.064;4.492;2023-03-01T00:21:32;14.23;;;11.25;;
64029;SDS011;50277;52.064;4.492;2023-03-01T00:24:00;15.07;;;12.25;;
64029;SDS011;50277;52.064;4.492;2023-03-01T00:26:26;18.52;;;12.35;;
64029;SDS011;50277;52.064;4.492;2023-03-01T00:28:51;19.65;;;12.63;;
64029;SDS011;50277;52.064;4.492;2023-03-01T00:31:18;16.42;;;12.93;;
64029;SDS011;50277;52.064;4.492;2023-03-01T00:33:45;17.48;;;13.45;;
64029;SDS011;50277;52.064;4.492;2023-03-01T00:36:12;18.20;;;13.55;;
64029;SDS011;50277;52.064;4.492;2023-03-01T00:38:40;21.92;;;14.25;;
64029;SDS011;50277;52.064;4.492;2023-03-01T00:41:07;19.92;;;15.35;;
64029;SDS011;50277;52.064;4.492;2023-03-01T00:43:33;24.75;;;15.32;;
64029;SDS011;50277;52.064;4.492;2023-03-01T00:46:02;17.63;;;14.38;;
64029;SDS011;50277;52.064;4.492;2023-03-01T00:48:28;22.05;;;15.20;;
64029;SDS011;50277;52.064;4.492;2023-03-01T00:50:54;22.95;;;14.68;;
64029;SDS011;50277;52.064;4.492;2023-03-01T00:53:19;22.90;;;14.35;;
64029;SDS011;50277;52.064;4.492;2023-03-01T00:55:44;22.17;;;15.82;;
64029;SDS011;50277;52.064;4.492;2023-03-01T00:58:09;22.08;;;16.02;;
64029;SDS011;50277;52.064;4.492;2023-03-01T01:00:35;21.13;;;15.60;;
64029;SDS011;50277;52.064;4.492;2023-03-01T01:03:01;23.85;;;16.80;;
64029;SDS011;50277;52.064;4.492;2023-03-01T01:05:26;26.00;;;17.77;;
64029;SDS011;50277;52.064;4.492;2023-03-01T01:07:51;25.73;;;17.92;;
64029;SDS011;50277;52.064;4.492;2023-03-01T01:10:17;27.52;;;19.13;;
64029;SDS011;50277;52.064;4.492;2023-03-01T01:12:45;28.27;;;18.38;;
64029;SDS011;50277;52.064;4.492;2023-03-01T01:15:11;25.13;;;19.02;;
64029;SDS011;50277;52.064;4.492;2023-03-01T01:17:39;27.53;;;19.20;;
64029;SDS011;50277;52.064;4.492;2023-03-01T01:20:04;28.23;;;19.10;;
64029;SDS011;50277;52.064;4.492;2023-03-01T01:22:30;30.88;;;20.35;;
64029;SDS011;50277;52.064;4.492;2023-03-01T01:24:55;28.42;;;18.48;;
64029;SDS011;50277;52.064;4.492;2023-03-01T01:27:21;25.67;;;18.70;;
64029;SDS011;50277;52.064;4.492;2023-03-01T01:29:46;27.02;;;20.27;;
64029;SDS011;50277;52.064;4.492;2023-03-01T01:32:11;31.95;;;20.48;;
64029;SDS011;50277;52.064;4.492;2023-03-01T01:34:37;32.17;;;21.75;;
64029;SDS011;50277;52.064;4.492;2023-03-01T01:37:02;30.20;;;20.67;;
64029;SDS011;50277;52.064;4.492;2023-03-01T01:39:28;36.80;;;21.95;;
64029;SDS011;50277;52.064;4.492;2023-03-01T01:41:53;31.92;;;20.77;;
64029;SDS011;50277;52.064;4.492;2023-03-01T01:44:20;28.45;;;20.30;;
64029;SDS011;50277;52.064;4.492;2023-03-01T01:49:42;32.50;;;22.40;;
64029;SDS011;50277;52.064;4.492;2023-03-01T01:52:14;32.55;;;22.55;;
64029;SDS011;50277;52.064;4.492;2023-03-01T01:57:36;37.85;;;23.23;;
64029;SDS011;50277;52.064;4.492;2023-03-01T02:00:07;32.33;;;21.50;;
64029;SDS011;50277;52.064;4.492;2023-03-01T02:02:39;30.52;;;22.20;;
64029;SDS011;50277;52.064;4.492;2023-03-01T02:05:08;33.95;;;22.40;;
64029;SDS011;50277;52.064;4.492;2023-03-01T02:07:37;33.33;;;22.63;;
64029;SDS011;50277;52.064;4.492;2023-03-01T02:10:03;36.17;;;24.17;;
64029;SDS011;50277;52.064;4.492;2023-03-01T02:12:29;33.58;;;23.27;;
64029;SDS011;50277;52.064;4.492;2023-03-01T02:14:55;39.13;;;24.10;;
64029;SDS011;50277;52.064;4.492;2023-03-01T02:17:20;36.22;;;24.65;;
64029;SDS011;50277;52.064;4.492;2023-03-01T02:19:49;36.60;;;24.83;;
64029;SDS011;50277;52.064;4.492;2023-03-01T02:22:22;35.83;;;24.80;;
64029;SDS011;50277;52.064;4.492;2023-03-01T02:30:45;38.83;;;24.63;;
64029;SDS011;50277;52.064;4.492;2023-03-01T02:33:31;39.60;;;24.73;;
64029;SDS011;50277;52.064;4.492;2023-03-01T02:35:58;37.30;;;24.10;;
64029;SDS011;50277;52.064;4.492;2023-03-01T02:38:25;42.42;;;27.52;;
64029;SDS011;50277;52.064;4.492;2023-03-01T02:40:51;46.10;;;25.88;;
64029;SDS011;50277;52.064;4.492;2023-03-01T02:43:17;40.63;;;26.38;;
64029;SDS011;50277;52.064;4.492;2023-03-01T02:45:50;40.75;;;26.48;;
64029;SDS011;50277;52.064;4.492;2023-03-01T02:48:18;42.78;;;28.00;;
64029;SDS011;50277;52.064;4.492;2023-03-01T02:53:34;45.38;;;27.20;;
64029;SDS011;50277;52.064;4.492;2023-03-01T02:56:11;37.90;;;25.67;;
64029;SDS011;50277;52.064;4.492;2023-03-01T02:58:38;37.17;;;26.13;;
64029;SDS011;50277;52.064;4.492;2023-03-01T03:01:10;41.08;;;24.67;;
64029;SDS011;50277;52.064;4.492;2023-03-01T03:03:40;41.65;;;26.95;;
64029;SDS011;50277;52.064;4.492;2023-03-01T03:06:05;42.28;;;28.58;;
64029;SDS011;50277;52.064;4.492;2023-03-01T03:08:31;42.63;;;29.02;;
64029;SDS011;50277;52.064;4.492;2023-03-01T03:10:56;52.40;;;31.52;;
64029;SDS011;50277;52.064;4.492;2023-03-01T03:13:22;49.58;;;28.83;;
64029;SDS011;50277;52.064;4.492;2023-03-01T03:15:47;49.30;;;30.55;;
64029;SDS011;50277;52.064;4.492;2023-03-01T03:18:14;46.85;;;30.88;;
64029;SDS011;50277;52.064;4.492;2023-03-01T03:20:41;54.00;;;30.85;;
64029;SDS011;50277;52.064;4.492;2023-03-01T03:23:07;47.95;;;30.83;;
64029;SDS011;50277;52.064;4.492;2023-03-01T03:25:32;49.47;;;30.02;;
64029;SDS011;50277;52.064;4.492;2023-03-01T03:28:02;50.10;;;30.38;;
64029;SDS011;50277;52.064;4.492;2023-03-01T03:30:34;52.40;;;31.52;;
64029;SDS011;50277;52.064;4.492;2023-03-01T03:33:00;53.25;;;30.20;;
64029;SDS011;50277;52.064;4.492;2023-03-01T03:35:27;48.58;;;30.25;;
64029;SDS011;50277;52.064;4.492;2023-03-01T03:38:01;53.13;;;28.52;;
64029;SDS011;50277;52.064;4.492;2023-03-01T03:42:59;58.50;;;30.60;;
64029;SDS011;50277;52.064;4.492;2023-03-01T03:45:24;65.32;;;28.70;;
64029;SDS011;50277;52.064;4.492;2023-03-01T03:47:50;78.22;;;30.13;;
64029;SDS011;50277;52.064;4.492;2023-03-01T03:50:15;48.53;;;27.10;;
64029;SDS011;50277;52.064;4.492;2023-03-01T03:52:42;48.40;;;27.45;;
64029;SDS011;50277;52.064;4.492;2023-03-01T03:55:08;52.13;;;30.70;;
64029;SDS011;50277;52.064;4.492;2023-03-01T03:57:34;62.50;;;30.92;;
64029;SDS011;50277;52.064;4.492;2023-03-01T04:00:00;52.85;;;30.15;;
64029;SDS011;50277;52.064;4.492;2023-03-01T04:02:25;88.22;;;31.15;;
64029;SDS011;50277;52.064;4.492;2023-03-01T04:04:51;55.80;;;29.70;;
64029;SDS011;50277;52.064;4.492;2023-03-01T04:07:16;93.22;;;29.90;;
64029;SDS011;50277;52.064;4.492;2023-03-01T04:09:42;54.40;;;28.05;;
64029;SDS011;50277;52.064;4.492;2023-03-01T04:12:08;60.10;;;30.42;;
64029;SDS011;50277;52.064;4.492;2023-03-01T04:14:34;76.47;;;30.15;;
64029;SDS011;50277;52.064;4.492;2023-03-01T04:16:59;66.88;;;28.00;;
64029;SDS011;50277;52.064;4.492;2023-03-01T04:19:24;51.42;;;27.80;;
64029;SDS011;50277;52.064;4.492;2023-03-01T04:21:51;65.90;;;29.58;;
64029;SDS011;50277;52.064;4.492;2023-03-01T04:24:17;63.47;;;29.20;;
64029;SDS011;50277;52.064;4.492;2023-03-01T04:26:42;50.22;;;27.23;;
64029;SDS011;50277;52.064;4.492;2023-03-01T04:29:08;51.35;;;27.67;;
64029;SDS011;50277;52.064;4.492;2023-03-01T04:31:33;54.67;;;29.10;;
64029;SDS011;50277;52.064;4.492;2023-03-01T04:33:59;83.70;;;30.70;;
64029;SDS011;50277;52.064;4.492;2023-03-01T04:36:25;72.85;;;30.63;;
64029;SDS011;50277;52.064;4.492;2023-03-01T04:38:54;90.18;;;28.73;;
64029;SDS011;50277;52.064;4.492;2023-03-01T04:41:21;54.65;;;26.73;;
64029;SDS011;50277;52.064;4.492;2023-03-01T04:43:48;51.08;;;28.85;;
64029;SDS011;50277;52.064;4.492;2023-03-01T04:46:15;52.78;;;28.77;;
64029;SDS011;50277;52.064;4.492;2023-03-01T04:48:42;91.70;;;29.98;;
64029;SDS011;50277;52.064;4.492;2023-03-01T04:51:08;56.72;;;28.80;;
64029;SDS011;50277;52.064;4.492;2023-03-01T04:53:34;82.40;;;29.38;;
64029;SDS011;50277;52.064;4.492;2023-03-01T04:56:01;48.85;;;26.75;;
64029;SDS011;50277;52.064;4.492;2023-03-01T04:58:27;52.08;;;30.52;;
64029;SDS011;50277;52.064;4.492;2023-03-01T05:00:52;50.65;;;30.58;;
64029;SDS011;50277;52.064;4.492;2023-03-01T05:03:18;54.03;;;32.60;;
64029;SDS011;50277;52.064;4.492;2023-03-01T05:05:45;52.13;;;30.85;;
64029;SDS011;50277;52.064;4.492;2023-03-01T05:08:11;63.10;;;33.58;;
64029;SDS011;50277;52.064;4.492;2023-03-01T05:10:42;64.53;;;33.15;;
64029;SDS011;50277;52.064;4.492;2023-03-01T05:13:08;68.75;;;31.77;;
64029;SDS011;50277;52.064;4.492;2023-03-01T05:15:34;58.30;;;31.65;;
64029;SDS011;50277;52.064;4.492;2023-03-01T05:18:01;46.75;;;29.73;;
64029;SDS011;50277;52.064;4.492;2023-03-01T05:20:27;45.00;;;29.08;;
64029;SDS011;50277;52.064;4.492;2023-03-01T05:22:55;48.75;;;29.88;;
64029;SDS011;50277;52.064;4.492;2023-03-01T05:25:23;45.80;;;28.45;;
64029;SDS011;50277;52.064;4.492;2023-03-01T05:27:50;39.72;;;26.88;;
64029;SDS011;50277;52.064;4.492;2023-03-01T05:30:15;42.00;;;28.15;;
64029;SDS011;50277;52.064;4.492;2023-03-01T05:32:42;47.13;;;29.80;;
64029;SDS011;50277;52.064;4.492;2023-03-01T05:35:10;41.42;;;29.52;;
64029;SDS011;50277;52.064;4.492;2023-03-01T05:40:03;42.53;;;28.50;;
64029;SDS011;50277;52.064;4.492;2023-03-01T05:42:30;43.03;;;29.40;;
64029;SDS011;50277;52.064;4.492;2023-03-01T05:44:55;40.08;;;27.77;;
64029;SDS011;50277;52.064;4.492;2023-03-01T05:47:21;36.63;;;25.83;;
64029;SDS011;50277;52.064;4.492;2023-03-01T05:49:47;36.47;;;26.63;;
64029;SDS011;50277;52.064;4.492;2023-03-01T05:52:14;33.78;;;25.33;;
64029;SDS011;50277;52.064;4.492;2023-03-01T05:54:39;37.22;;;25.77;;
64029;SDS011;50277;52.064;4.492;2023-03-01T05:57:05;30.48;;;23.02;;
64029;SDS011;50277;52.064;4.492;2023-03-01T05:59:30;35.55;;;24.80;;
64029;SDS011;50277;52.064;4.492;2023-03-01T06:01:55;31.25;;;22.70;;
64029;SDS011;50277;52.064;4.492;2023-03-01T06:04:21;29.33;;;21.17;;
64029;SDS011;50277;52.064;4.492;2023-03-01T06:06:46;26.17;;;20.50;;
64029;SDS011;50277;52.064;4.492;2023-03-01T06:09:11;30.58;;;22.08;;
64029;SDS011;50277;52.064;4.492;2023-03-01T06:11:37;30.58;;;21.77;;
64029;SDS011;50277;52.064;4.492;2023-03-01T06:14:02;32.75;;;23.52;;
64029;SDS011;50277;52.064;4.492;2023-03-01T06:16:28;36.55;;;24.95;;
64029;SDS011;50277;52.064;4.492;2023-03-01T06:18:53;34.67;;;24.35;;
64029;SDS011;50277;52.064;4.492;2023-03-01T06:21:19;33.05;;;22.60;;
64029;SDS011;50277;52.064;4.492;2023-03-01T06:23:44;36.53;;;26.10;;
64029;SDS011;50277;52.064;4.492;2023-03-01T06:26:09;37.97;;;26.10;;
64029;SDS011;50277;52.064;4.492;2023-03-01T06:28:35;43.28;;;27.88;;
64029;SDS011;50277;52.064;4.492;2023-03-01T06:31:00;40.33;;;27.85;;
64029;SDS011;50277;52.064;4.492;2023-03-01T06:33:26;42.42;;;25.45;;
64029;SDS011;50277;52.064;4.492;2023-03-01T06:35:54;36.90;;;25.85;;
64029;SDS011;50277;52.064;4.492;2023-03-01T06:38:19;39.80;;;26.98;;
64029;SDS011;50277;52.064;4.492;2023-03-01T06:40:45;38.53;;;25.98;;
64029;SDS011;50277;52.064;4.492;2023-03-01T06:43:17;42.22;;;28.05;;
64029;SDS011;50277;52.064;4.492;2023-03-01T06:45:42;39.95;;;28.20;;
64029;SDS011;50277;52.064;4.492;2023-03-01T06:48:07;39.42;;;26.88;;
64029;SDS011;50277;52.064;4.492;2023-03-01T06:50:33;42.30;;;28.00;;
64029;SDS011;50277;52.064;4.492;2023-03-01T06:52:59;47.05;;;29.02;;
64029;SDS011;50277;52.064;4.492;2023-03-01T06:55:25;44.53;;;27.67;;
64029;SDS011;50277;52.064;4.492;2023-03-01T06:57:54;39.83;;;26.42;;
64029;SDS011;50277;52.064;4.492;2023-03-01T07:00:23;42.35;;;27.05;;
64029;SDS011;50277;52.064;4.492;2023-03-01T07:02:49;38.05;;;25.77;;
64029;SDS011;50277;52.064;4.492;2023-03-01T07:05:14;38.50;;;24.67;;
64029;SDS011;50277;52.064;4.492;2023-03-01T07:07:40;37.55;;;24.55;;
64029;SDS011;50277;52.064;4.492;2023-03-01T07:10:05;33.95;;;23.63;;
64029;SDS011;50277;52.064;4.492;2023-03-01T07:12:32;32.35;;;23.30;;
64029;SDS011;50277;52.064;4.492;2023-03-01T07:14:58;31.08;;;22.73;;
64029;SDS011;50277;52.064;4.492;2023-03-01T07:17:23;27.98;;;21.85;;
64029;SDS011;50277;52.064;4.492;2023-03-01T07:19:49;26.27;;;21.00;;
64029;SDS011;50277;52.064;4.492;2023-03-01T07:22:14;26.50;;;19.67;;
64029;SDS011;50277;52.064;4.492;2023-03-01T07:24:40;24.40;;;19.08;;
64029;SDS011;50277;52.064;4.492;2023-03-01T07:27:06;24.98;;;20.30;;
64029;SDS011;50277;52.064;4.492;2023-03-01T07:29:31;27.15;;;19.77;;
64029;SDS011;50277;52.064;4.492;2023-03-01T07:31:57;26.40;;;20.02;;
64029;SDS011;50277;52.064;4.492;2023-03-01T07:34:23;21.90;;;17.63;;
64029;SDS011;50277;52.064;4.492;2023-03-01T07:36:48;22.05;;;17.40;;
64029;SDS011;50277;52.064;4.492;2023-03-01T07:39:14;17.92;;;15.15;;
64029;SDS011;50277;52.064;4.492;2023-03-01T07:41:39;16.73;;;14.30;;
64029;SDS011;50277;52.064;4.492;2023-03-01T07:44:04;18.45;;;13.68;;
64029;SDS011;50277;52.064;4.492;2023-03-01T07:46:31;16.00;;;13.20;;
64029;SDS011;50277;52.064;4.492;2023-03-01T07:48:57;16.33;;;13.75;;
64029;SDS011;50277;52.064;4.492;2023-03-01T07:51:23;17.55;;;13.48;;
64029;SDS011;50277;52.064;4.492;2023-03-01T07:53:48;17.63;;;14.60;;
64029;SDS011;50277;52.064;4.492;2023-03-01T07:56:14;22.48;;;16.33;;
64029;SDS011;50277;52.064;4.492;2023-03-01T07:58:42;21.30;;;15.38;;
64029;SDS011;50277;52.064;4.492;2023-03-01T08:01:09;19.80;;;13.63;;
64029;SDS011;50277;52.064;4.492;2023-03-01T08:03:39;18.88;;;15.30;;
64029;SDS011;50277;52.064;4.492;2023-03-01T08:06:06;15.20;;;13.20;;
64029;SDS011;50277;52.064;4.492;2023-03-01T08:08:32;14.50;;;12.05;;
64029;SDS011;50277;52.064;4.492;2023-03-01T08:45:05;11.38;;;9.82;;
64029;SDS011;50277;52.064;4.492;2023-03-01T08:47:31;12.48;;;9.13;;
64029;SDS011;50277;52.064;4.492;2023-03-01T08:49:58;11.18;;;9.48;;
64029;SDS011;50277;52.064;4.492;2023-03-01T08:52:24;10.15;;;9.15;;
64029;SDS011;50277;52.064;4.492;2023-03-01T08:54:49;11.82;;;8.10;;
64029;SDS011;50277;52.064;4.492;2023-03-01T08:57:15;9.82;;;8.82;;
64029;SDS011;50277;52.064;4.492;2023-03-01T08:59:40;9.05;;;8.15;;
64029;SDS011;50277;52.064;4.492;2023-03-01T09:02:08;9.32;;;8.43;;
64029;SDS011;50277;52.064;4.492;2023-03-01T09:04:36;9.77;;;8.50;;
64029;SDS011;50277;52.064;4.492;2023-03-01T09:07:01;11.55;;;8.48;;
64029;SDS011;50277;52.064;4.492;2023-03-01T09:09:27;9.43;;;8.10;;
64029;SDS011;50277;52.064;4.492;2023-03-01T09:11:52;7.90;;;7.05;;
64029;SDS011;50277;52.064;4.492;2023-03-01T09:14:18;8.73;;;7.63;;
64029;SDS011;50277;52.064;4.492;2023-03-01T09:16:43;16.23;;;6.93;;
64029;SDS011;50277;52.064;4.492;2023-03-01T09:19:08;7.20;;;6.57;;
64029;SDS011;50277;52.064;4.492;2023-03-01T09:21:34;7.85;;;7.10;;
64029;SDS011;50277;52.064;4.492;2023-03-01T09:23:59;8.05;;;7.22;;
64029;SDS011;50277;52.064;4.492;2023-03-01T09:26:24;11.10;;;7.72;;
64029;SDS011;50277;52.064;4.492;2023-03-01T09:28:51;7.35;;;6.75;;
64029;SDS011;50277;52.064;4.492;2023-03-01T09:31:19;9.57;;;6.97;;
64029;SDS011;50277;52.064;4.492;2023-03-01T09:33:46;8.90;;;6.82;;
64029;SDS011;50277;52.064;4.492;2023-03-01T09:36:13;8.77;;;7.20;;
64029;SDS011;50277;52.064;4.492;2023-03-01T09:38:40;8.45;;;7.47;;
64029;SDS011;50277;52.064;4.492;2023-03-01T09:41:27;8.23;;;7.30;;
64029;SDS011;50277;52.064;4.492;2023-03-01T09:47:03;7.22;;;6.60;;
64029;SDS011;50277;52.064;4.492;2023-03-01T09:49:31;6.97;;;6.38;;
64029;SDS011;50277;52.064;4.492;2023-03-01T09:54:38;7.30;;;6.63;;
64029;SDS011;50277;52.064;4.492;2023-03-01T09:59:35;8.00;;;7.20;;
64029;SDS011;50277;52.064;4.492;2023-03-01T10:04:55;8.77;;;6.35;;
64029;SDS011;50277;52.064;4.492;2023-03-01T10:11:00;7.13;;;5.80;;
64029;SDS011;50277;52.064;4.492;2023-03-01T10:13:17;9.32;;;5.35;;
64029;SDS011;50277;52.064;4.492;2023-03-01T10:15:50;6.97;;;6.28;;
64029;SDS011;50277;52.064;4.492;2023-03-01T10:18:21;5.93;;;5.30;;
64029;SDS011;50277;52.064;4.492;2023-03-01T10:23:18;8.35;;;4.85;;
64029;SDS011;50277;52.064;4.492;2023-03-01T10:25:47;5.32;;;4.82;;
64029;SDS011;50277;52.064;4.492;2023-03-01T10:31:15;5.38;;;4.88;;
64029;SDS011;50277;52.064;4.492;2023-03-01T10:33:44;5.28;;;4.82;;
64029;SDS011;50277;52.064;4.492;2023-03-01T10:36:09;6.90;;;5.20;;
64029;SDS011;50277;52.064;4.492;2023-03-01T10:38:48;8.65;;;5.13;;
64029;SDS011;50277;52.064;4.492;2023-03-01T10:41:13;5.78;;;5.28;;
64029;SDS011;50277;52.064;4.492;2023-03-01T10:43:49;6.00;;;5.40;;
64029;SDS011;50277;52.064;4.492;2023-03-01T10:46:30;6.05;;;5.55;;
64029;SDS011;50277;52.064;4.492;2023-03-01T10:49:17;6.75;;;5.00;;
64029;SDS011;50277;52.064;4.492;2023-03-01T10:51:45;7.70;;;5.65;;
64029;SDS011;50277;52.064;4.492;2023-03-01T10:54:33;6.60;;;5.78;;
64029;SDS011;50277;52.064;4.492;2023-03-01T10:57:02;6.13;;;5.18;;
64029;SDS011;50277;52.064;4.492;2023-03-01T10:59:36;5.72;;;5.05;;
64029;SDS011;50277;52.064;4.492;2023-03-01T11:04:34;5.07;;;4.65;;
64029;SDS011;50277;52.064;4.492;2023-03-01T11:07:00;6.32;;;5.15;;
64029;SDS011;50277;52.064;4.492;2023-03-01T11:09:25;7.35;;;5.85;;
64029;SDS011;50277;52.064;4.492;2023-03-01T11:11:57;6.32;;;5.72;;
64029;SDS011;50277;52.064;4.492;2023-03-01T11:14:26;6.55;;;5.93;;
64029;SDS011;50277;52.064;4.492;2023-03-01T11:17:05;13.37;;;6.43;;
64029;SDS011;50277;52.064;4.492;2023-03-01T11:19:38;6.53;;;5.55;;
64029;SDS011;50277;52.064;4.492;2023-03-01T11:25:13;5.85;;;5.30;;
64029;SDS011;50277;52.064;4.492;2023-03-01T11:27:24;6.07;;;5.45;;
64029;SDS011;50277;52.064;4.492;2023-03-01T11:29:55;5.68;;;4.82;;
64029;SDS011;50277;52.064;4.492;2023-03-01T11:32:23;6.60;;;5.32;;
64029;SDS011;50277;52.064;4.492;2023-03-01T11:40:33;8.65;;;6.57;;
64029;SDS011;50277;52.064;4.492;2023-03-01T11:50:54;11.65;;;8.85;;
64029;SDS011;50277;52.064;4.492;2023-03-01T11:53:24;9.82;;;8.65;;
64029;SDS011;50277;52.064;4.492;2023-03-01T11:59:31;11.57;;;9.23;;
64029;SDS011;50277;52.064;4.492;2023-03-01T12:02:12;12.73;;;8.52;;
64029;SDS011;50277;52.064;4.492;2023-03-01T12:18:29;13.60;;;9.50;;
64029;SDS011;50277;52.064;4.492;2023-03-01T12:27:10;12.30;;;9.27;;
64029;SDS011;50277;52.064;4.492;2023-03-01T12:35:02;14.43;;;9.18;;
64029;SDS011;50277;52.064;4.492;2023-03-01T12:48:19;15.23;;;9.35;;
64029;SDS011;50277;52.064;4.492;2023-03-01T12:50:49;11.20;;;8.60;;
64029;SDS011;50277;52.064;4.492;2023-03-01T12:53:24;19.10;;;10.27;;
64029;SDS011;50277;52.064;4.492;2023-03-01T12:56:07;15.50;;;10.68;;
64029;SDS011;50277;52.064;4.492;2023-03-01T12:58:42;13.30;;;10.68;;
64029;SDS011;50277;52.064;4.492;2023-03-01T13:12:01;12.35;;;8.75;;
64029;SDS011;50277;52.064;4.492;2023-03-01T13:16:57;12.55;;;7.93;;
64029;SDS011;50277;52.064;4.492;2023-03-01T13:19:26;8.13;;;7.05;;
64029;SDS011;50277;52.064;4.492;2023-03-01T13:21:57;8.18;;;6.10;;
64029;SDS011;50277;52.064;4.492;2023-03-01T13:24:23;8.50;;;6.10;;
64029;SDS011;50277;52.064;4.492;2023-03-01T13:27:08;8.57;;;5.75;;
64029;SDS011;50277;52.064;4.492;2023-03-01T13:32:29;10.05;;;4.90;;
64029;SDS011;50277;52.064;4.492;2023-03-01T13:37:36;12.57;;;5.50;;
64029;SDS011;50277;52.064;4.492;2023-03-01T13:42:48;6.55;;;4.20;;
64029;SDS011;50277;52.064;4.492;2023-03-01T13:45:58;7.07;;;4.90;;
64029;SDS011;50277;52.064;4.492;2023-03-01T13:48:09;10.93;;;5.15;;
64029;SDS011;50277;52.064;4.492;2023-03-01T13:50:38;6.80;;;5.00;;
64029;SDS011;50277;52.064;4.492;2023-03-01T13:53:11;6.43;;;4.90;;
64029;SDS011;50277;52.064;4.492;2023-03-01T13:55:42;6.90;;;4.82;;
64029;SDS011;50277;52.064;4.492;2023-03-01T13:58:53;6.45;;;5.03;;
64029;SDS011;50277;52.064;4.492;2023-03-01T14:01:18;6.88;;;4.85;;
64029;SDS011;50277;52.064;4.492;2023-03-01T14:03:55;9.48;;;5.07;;
64029;SDS011;50277;52.064;4.492;2023-03-01T14:06:22;5.72;;;4.88;;
64029;SDS011;50277;52.064;4.492;2023-03-01T14:08:50;8.90;;;5.25;;
64029;SDS011;50277;52.064;4.492;2023-03-01T14:19:56;5.45;;;4.95;;
64029;SDS011;50277;52.064;4.492;2023-03-01T14:25:06;5.80;;;5.20;;
64029;SDS011;50277;52.064;4.492;2023-03-01T14:27:46;7.30;;;5.72;;
64029;SDS011;50277;52.064;4.492;2023-03-01T14:30:35;7.50;;;4.75;;
64029;SDS011;50277;52.064;4.492;2023-03-01T14:35:57;5.97;;;5.22;;
64029;SDS011;50277;52.064;4.492;2023-03-01T14:38:38;13.95;;;5.22;;
64029;SDS011;50277;52.064;4.492;2023-03-01T14:41:09;7.97;;;5.32;;
64029;SDS011;50277;52.064;4.492;2023-03-01T14:43:36;6.93;;;5.60;;
64029;SDS011;50277;52.064;4.492;2023-03-01T14:46:03;7.20;;;5.35;;
64029;SDS011;50277;52.064;4.492;2023-03-01T14:48:28;7.25;;;5.85;;
64029;SDS011;50277;52.064;4.492;2023-03-01T14:50:54;6.88;;;5.30;;
64029;SDS011;50277;52.064;4.492;2023-03-01T14:53:29;7.97;;;4.65;;
64029;SDS011;50277;52.064;4.492;2023-03-01T14:55:56;4.85;;;4.30;;
64029;SDS011;50277;52.064;4.492;2023-03-01T14:58:27;7.35;;;4.68;;
64029;SDS011;50277;52.064;4.492;2023-03-01T15:00:56;6.38;;;4.68;;
64029;SDS011;50277;52.064;4.492;2023-03-01T15:03:24;8.00;;;4.72;;
64029;SDS011;50277;52.064;4.492;2023-03-01T15:05:53;7.97;;;4.50;;
64029;SDS011;50277;52.064;4.492;2023-03-01T15:08:19;5.93;;;4.50;;
64029;SDS011;50277;52.064;4.492;2023-03-01T15:11:06;6.57;;;4.50;;
64029;SDS011;50277;52.064;4.492;2023-03-01T15:13:43;4.90;;;4.03;;
64029;SDS011;50277;52.064;4.492;2023-03-01T15:16:12;5.93;;;4.60;;
64029;SDS011;50277;52.064;4.492;2023-03-01T15:18:49;7.05;;;4.53;;
64029;SDS011;50277;52.064;4.492;2023-03-01T15:21:23;9.05;;;4.50;;
64029;SDS011;50277;52.064;4.492;2023-03-01T15:24:34;4.75;;;4.20;;
64029;SDS011;50277;52.064;4.492;2023-03-01T15:26:54;5.53;;;4.65;;
64029;SDS011;50277;52.064;4.492;2023-03-01T15:29:23;5.22;;;4.03;;
64029;SDS011;50277;52.064;4.492;2023-03-01T15:31:56;7.15;;;4.40;;
64029;SDS011;50277;52.064;4.492;2023-03-01T15:34:32;6.45;;;4.32;;
64029;SDS011;50277;52.064;4.492;2023-03-01T15:37:02;4.70;;;4.10;;
64029;SDS011;50277;52.064;4.492;2023-03-01T15:42:02;5.82;;;4.00;;
64029;SDS011;50277;52.064;4.492;2023-03-01T15:44:30;6.03;;;4.47;;
64029;SDS011;50277;52.064;4.492;2023-03-01T15:46:57;5.45;;;4.32;;
64029;SDS011;50277;52.064;4.492;2023-03-01T15:55:00;6.47;;;3.92;;
64029;SDS011;50277;52.064;4.492;2023-03-01T15:57:26;5.22;;;4.25;;
64029;SDS011;50277;52.064;4.492;2023-03-01T15:59:52;5.72;;;4.30;;
64029;SDS011;50277;52.064;4.492;2023-03-01T16:02:17;8.35;;;4.60;;
64029;SDS011;50277;52.064;4.492;2023-03-01T16:04:45;6.38;;;4.20;;
64029;SDS011;50277;52.064;4.492;2023-03-01T16:07:11;7.28;;;4.43;;
64029;SDS011;50277;52.064;4.492;2023-03-01T16:09:36;7.40;;;4.40;;
64029;SDS011;50277;52.064;4.492;2023-03-01T16:12:02;4.43;;;3.97;;
64029;SDS011;50277;52.064;4.492;2023-03-01T16:14:27;5.70;;;4.55;;
64029;SDS011;50277;52.064;4.492;2023-03-01T16:16:53;5.85;;;4.38;;
64029;SDS011;50277;52.064;4.492;2023-03-01T16:19:18;6.18;;;4.20;;
64029;SDS011;50277;52.064;4.492;2023-03-01T16:21:44;5.63;;;4.20;;
64029;SDS011;50277;52.064;4.492;2023-03-01T16:24:11;9.00;;;4.47;;
64029;SDS011;50277;52.064;4.492;2023-03-01T16:26:37;7.18;;;4.55;;
64029;SDS011;50277;52.064;4.492;2023-03-01T16:29:03;6.90;;;4.60;;
64029;SDS011;50277;52.064;4.492;2023-03-01T16:31:28;5.43;;;4.60;;
64029;SDS011;50277;52.064;4.492;2023-03-01T16:33:54;11.15;;;4.60;;
64029;SDS011;50277;52.064;4.492;2023-03-01T16:36:21;10.10;;;4.60;;
64029;SDS011;50277;52.064;4.492;2023-03-01T16:38:52;8.27;;;5.35;;
64029;SDS011;50277;52.064;4.492;2023-03-01T16:41:19;8.45;;;5.18;;
64029;SDS011;50277;52.064;4.492;2023-03-01T16:43:45;8.23;;;5.82;;
64029;SDS011;50277;52.064;4.492;2023-03-01T16:48:37;6.15;;;5.00;;
64029;SDS011;50277;52.064;4.492;2023-03-01T16:51:03;8.10;;;5.45;;
64029;SDS011;50277;52.064;4.492;2023-03-01T16:53:29;11.38;;;4.85;;
64029;SDS011;50277;52.064;4.492;2023-03-01T16:55:55;7.10;;;4.82;;
64029;SDS011;50277;52.064;4.492;2023-03-01T16:58:21;6.93;;;4.90;;
64029;SDS011;50277;52.064;4.492;2023-03-01T17:00:49;5.45;;;4.57;;
64029;SDS011;50277;52.064;4.492;2023-03-01T17:03:18;5.65;;;4.60;;
64029;SDS011;50277;52.064;4.492;2023-03-01T17:05:45;6.85;;;4.75;;
64029;SDS011;50277;52.064;4.492;2023-03-01T17:08:11;6.72;;;4.97;;
64029;SDS011;50277;52.064;4.492;2023-03-01T17:10:36;7.07;;;4.78;;
64029;SDS011;50277;52.064;4.492;2023-03-01T17:13:01;7.50;;;5.40;;
64029;SDS011;50277;52.064;4.492;2023-03-01T17:15:27;9.25;;;4.90;;
64029;SDS011;50277;52.064;4.492;2023-03-01T17:17:52;10.40;;;4.85;;
64029;SDS011;50277;52.064;4.492;2023-03-01T17:20:17;6.88;;;4.47;;
64029;SDS011;50277;52.064;4.492;2023-03-01T17:22:43;8.20;;;5.10;;
64029;SDS011;50277;52.064;4.492;2023-03-01T17:25:09;4.95;;;4.45;;
64029;SDS011;50277;52.064;4.492;2023-03-01T17:27:35;8.27;;;5.00;;
64029;SDS011;50277;52.064;4.492;2023-03-01T17:30:02;7.78;;;4.90;;
64029;SDS011;50277;52.064;4.492;2023-03-01T17:32:28;6.90;;;4.93;;
64029;SDS011;50277;52.064;4.492;2023-03-01T17:34:54;9.48;;;5.53;;
64029;SDS011;50277;52.064;4.492;2023-03-01T17:37:19;7.05;;;5.15;;